Time;durP1;ratioP1;P1;durP2;ratioP2;P2;SDS_P1;SDS_P2;PMS_P1;PMS_P2;Temp;Humidity;BMP_temperature;BMP_pressure;BME280_temperature;BME280_humidity;BME280_pressure;Samples;Min_cycle;Max_cycle;Signal;HPM_P1;HPM_P2
2021/09/11 00:00:07;;;;;;;8.00;6.87;;;;;;;12.36;74.32;99448.81;5097737;28;20224;-80
2021/09/11 00:02:53;;;;;;;9.43;6.80;;;;;;;12.19;74.68;99430.97;5112979;22;20232;-80
2021/09/11 00:05:36;;;;;;;11.77;7.47;;;;;;;12.22;74.83;99442.09;5111387;28;20207;-80
2021/09/11 00:08:29;;;;;;;7.67;6.87;;;;;;;12.24;74.67;99441.81;5113056;28;20220;-80
2021/09/11 00:11:01;;;;;;;9.67;6.80;;;;;;;12.29;75.11;99452.69;5112402;28;20249;-80
2021/09/11 00:14:08;;;;;;;9.90;7.00;;;;;;;12.24;75.17;99448.03;5101737;22;20228;-80
2021/09/11 00:17:00;;;;;;;8.07;7.20;;;;;;;12.16;75.22;99445.69;5095746;28;20250;-80
2021/09/11 00:19:40;;;;;;;7.87;7.13;;;;;;;12.16;75.08;99455.63;5118885;22;20239;-80
2021/09/11 00:22:33;;;;;;;7.63;6.80;;;;;;;12.11;75.63;99447.44;5109052;22;20246;-80
2021/09/11 00:25:27;;;;;;;8.53;7.53;;;;;;;12.05;75.89;99449.19;5092219;28;20189;-80
2021/09/11 00:28:46;;;;;;;8.20;7.40;;;;;;;11.95;76.02;99446.25;5067629;28;20228;-80
2021/09/11 00:31:37;;;;;;;9.27;7.13;;;;;;;11.91;76.40;99448.59;5086464;28;20228;-80
2021/09/11 00:34:18;;;;;;;8.17;6.97;;;;;;;11.83;75.90;99440.91;5073477;28;20239;-80
2021/09/11 00:37:03;;;;;;;8.03;7.17;;;;;;;11.77;76.07;99439.13;5090032;28;20224;-80
2021/09/11 00:39:39;;;;;;;9.40;7.47;;;;;;;11.75;76.84;99449.31;5084668;22;20555;-80
2021/09/11 00:42:18;;;;;;;8.77;7.63;;;;;;;11.73;77.20;99451.38;5123715;22;20232;-79
2021/09/11 00:44:57;;;;;;;10.03;8.07;;;;;;;11.61;77.19;99431.75;5162694;22;20219;-80
2021/09/11 00:47:42;;;;;;;8.37;7.57;;;;;;;11.62;77.20;99438.72;5071645;28;20567;-80
2021/09/11 00:50:25;;;;;;;8.17;7.37;;;;;;;11.60;77.35;99437.34;5071933;28;20225;-80
2021/09/11 00:53:10;;;;;;;8.07;7.27;;;;;;;11.66;77.30;99449.84;5088562;28;20240;-81
2021/09/11 00:55:54;;;;;;;8.37;7.57;;;;;;;11.62;77.26;99452.13;5102036;28;20291;-80
2021/09/11 00:58:31;;;;;;;8.17;7.43;;;;;;;11.57;77.46;99448.53;5085957;28;20255;-80
2021/09/11 01:01:24;;;;;;;9.93;7.73;;;;;;;11.57;77.42;99449.31;5053974;28;20227;-80
2021/09/11 01:03:58;;;;;;;8.27;7.47;;;;;;;11.61;77.60;99444.34;5086281;28;20232;-80
2021/09/11 01:06:34;;;;;;;8.23;6.97;;;;;;;11.60;77.39;99453.44;5070365;28;20224;-80
2021/09/11 01:09:18;;;;;;;8.50;7.73;;;;;;;11.57;77.41;99461.94;5093875;23;20220;-80
2021/09/11 01:11:53;;;;;;;9.27;8.03;;;;;;;11.48;77.80;99453.38;5070888;23;20659;-80
2021/09/11 01:14:53;;;;;;;9.23;8.27;;;;;;;11.52;77.86;99454.59;5075152;28;20628;-80
2021/09/11 01:17:28;;;;;;;9.27;7.60;;;;;;;11.41;77.83;99442.78;5106445;28;20263;-80
2021/09/11 01:20:01;;;;;;;8.10;7.10;;;;;;;11.38;77.75;99455.84;5087427;28;20251;-80
2021/09/11 01:22:37;;;;;;;8.77;7.97;;;;;;;11.39;78.27;99460.13;5054775;28;20231;-80
2021/09/11 01:25:11;;;;;;;8.50;7.53;;;;;;;11.38;78.42;99467.34;5090696;22;20712;-80
2021/09/11 01:27:44;;;;;;;11.63;8.20;;;;;;;11.35;78.48;99470.50;5075008;23;20238;-80
2021/09/11 01:30:24;;;;;;;8.87;7.97;;;;;;;11.35;78.53;99467.00;5068940;28;20307;-80
2021/09/11 01:32:57;;;;;;;8.97;7.37;;;;;;;11.30;77.99;99464.19;5049886;28;20228;-80
2021/09/11 01:35:29;;;;;;;8.47;7.57;;;;;;;11.27;78.06;99459.28;5090735;22;20643;-80
2021/09/11 01:38:02;;;;;;;8.53;7.67;;;;;;;11.24;78.00;99459.75;5081839;23;20298;-80
2021/09/11 01:40:37;;;;;;;9.07;8.17;;;;;;;11.20;78.25;99461.25;5097107;23;20219;-80
2021/09/11 01:43:13;;;;;;;8.80;7.90;;;;;;;11.20;78.38;99466.63;5124471;28;20531;-80
2021/09/11 01:45:47;;;;;;;8.80;8.00;;;;;;;11.06;78.22;99451.75;5110225;28;20231;-80
2021/09/11 01:48:23;;;;;;;9.47;8.30;;;;;;;11.16;78.25;99473.47;5083707;23;20228;-80
2021/09/11 01:50:55;;;;;;;8.73;7.80;;;;;;;11.03;78.39;99461.88;5068282;28;20228;-79
2021/09/11 01:53:34;;;;;;;8.57;7.77;;;;;;;11.07;78.38;99464.09;5052870;28;20232;-79
2021/09/11 01:56:06;;;;;;;8.87;8.10;;;;;;;11.16;78.30;99476.97;5087419;28;20189;-80
2021/09/11 01:58:45;;;;;;;9.63;8.63;;;;;;;11.13;78.48;99481.97;5071153;28;20235;-80
2021/09/11 02:01:28;;;;;;;8.80;8.10;;;;;;;11.09;78.62;99476.25;5089270;28;20281;-80
2021/09/11 02:04:01;;;;;;;8.93;8.03;;;;;;;11.08;78.68;99481.81;5109845;22;20565;-80
2021/09/11 02:06:47;;;;;;;8.63;7.90;;;;;;;11.01;78.79;99476.56;5095745;28;20748;-80
2021/09/11 02:09:19;;;;;;;9.67;8.87;;;;;;;10.99;79.09;99478.63;5116772;22;20298;-80
2021/09/11 02:11:57;;;;;;;9.17;8.33;;;;;;;10.95;79.15;99480.97;5107654;28;20227;-80
2021/09/11 02:14:33;;;;;;;8.43;7.53;;;;;;;10.95;79.21;99489.00;5125236;22;20302;-79
2021/09/11 02:17:09;;;;;;;9.30;8.30;;;;;;;10.91;79.13;99485.13;5127555;28;20227;-80
2021/09/11 02:19:52;;;;;;;8.83;8.03;;;;;;;10.78;79.57;99479.13;5112286;28;20240;-79
2021/09/11 02:22:30;;;;;;;8.87;8.13;;;;;;;10.87;79.19;99488.50;5128106;28;20226;-79
2021/09/11 02:25:09;;;;;;;8.97;8.07;;;;;;;10.81;79.55;99489.38;5128244;28;20223;-79
2021/09/11 02:27:46;;;;;;;9.17;8.37;;;;;;;10.78;79.73;99482.59;5112732;28;20232;-79
2021/09/11 02:30:24;;;;;;;10.17;9.17;;;;;;;10.71;79.49;99481.88;5127058;28;20233;-79
2021/09/11 02:32:59;;;;;;;8.93;8.03;;;;;;;10.76;79.59;99506.13;5112180;28;20260;-79
2021/09/11 02:35:33;;;;;;;9.00;8.20;;;;;;;10.66;79.69;99497.78;5129392;28;20188;-79
2021/09/11 02:38:03;;;;;;;10.20;9.07;;;;;;;10.65;79.64;99498.81;5127422;28;20226;-79
2021/09/11 02:40:46;;;;;;;9.77;8.70;;;;;;;10.68;79.99;99502.94;5112568;28;20247;-79
2021/09/11 02:43:25;;;;;;;10.43;8.97;;;;;;;10.62;80.04;99490.44;5128494;28;20219;-80
2021/09/11 02:46:05;;;;;;;10.07;8.93;;;;;;;10.58;80.03;99498.91;5127161;28;20231;-79
2021/09/11 02:48:38;;;;;;;9.60;8.60;;;;;;;10.52;80.18;99483.72;5129574;28;20558;-79
2021/09/11 02:51:19;;;;;;;10.37;8.83;;;;;;;10.64;80.48;99504.44;5126975;28;20239;-79
2021/09/11 02:53:51;;;;;;;9.83;8.57;;;;;;;10.57;80.33;99491.91;5110834;28;20229;-79
2021/09/11 02:56:31;;;;;;;10.13;9.13;;;;;;;10.64;80.59;99499.88;5104957;28;20230;-79
2021/09/11 02:59:02;;;;;;;10.57;9.47;;;;;;;10.59;80.59;99497.84;5127175;28;20234;-79
2021/09/11 03:01:37;;;;;;;10.87;9.67;;;;;;;10.64;80.60;99502.53;5094557;28;20527;-80
2021/09/11 03:04:17;;;;;;;9.70;8.90;;;;;;;10.65;80.59;99501.50;5111240;28;20223;-79
2021/09/11 03:06:55;;;;;;;9.87;8.97;;;;;;;10.57;80.86;99485.75;5110262;28;20237;-79
2021/09/11 03:09:26;;;;;;;10.30;9.17;;;;;;;10.62;80.91;99501.13;5125464;28;20255;-79
2021/09/11 03:11:57;;;;;;;9.87;9.00;;;;;;;10.55;81.14;99493.97;5110111;28;20211;-79
2021/09/11 03:14:36;;;;;;;9.40;8.50;;;;;;;10.49;80.83;99491.41;5106328;28;20230;-79
2021/09/11 03:17:09;;;;;;;9.27;8.37;;;;;;;10.51;80.95;99498.16;5128179;28;20644;-79
2021/09/11 03:19:49;;;;;;;9.47;8.67;;;;;;;10.53;80.90;99503.31;5127123;28;20215;-80
2021/09/11 03:22:27;;;;;;;9.40;8.43;;;;;;;10.43;80.84;99493.09;5113222;23;20224;-79
2021/09/11 03:24:58;;;;;;;9.30;8.30;;;;;;;10.50;80.80;99506.41;5106111;28;20291;-79
2021/09/11 03:27:32;;;;;;;9.50;8.50;;;;;;;10.47;80.77;99498.81;5113340;22;20224;-79
2021/09/11 03:30:07;;;;;;;9.80;8.80;;;;;;;10.47;80.81;99498.81;5088092;22;20232;-79
2021/09/11 03:32:42;;;;;;;10.20;9.20;;;;;;;10.44;81.06;99505.44;5076913;22;20223;-80
2021/09/11 03:35:13;;;;;;;11.00;8.80;;;;;;;10.38;80.80;99509.00;5106450;28;20235;-79
2021/09/11 03:37:49;;;;;;;8.97;8.20;;;;;;;10.45;81.05;99519.66;5086659;28;20220;-79
2021/09/11 03:40:21;;;;;;;9.20;8.30;;;;;;;10.44;80.95;99516.16;5113861;22;20228;-79
2021/09/11 03:42:54;;;;;;;8.87;8.07;;;;;;;10.33;81.14;99503.50;5092023;28;20227;-79
2021/09/11 03:45:29;;;;;;;9.70;8.70;;;;;;;10.38;81.20;99510.88;5114542;22;20192;-79
2021/09/11 03:48:07;;;;;;;9.00;8.20;;;;;;;10.38;81.29;99517.03;5093126;28;20222;-79
2021/09/11 03:50:40;;;;;;;9.07;8.27;;;;;;;10.41;80.97;99523.81;5132088;22;20230;-80
2021/09/11 03:53:17;;;;;;;9.13;8.33;;;;;;;10.36;81.39;99519.09;5097804;22;20223;31
2021/09/11 03:55:56;;;;;;;9.80;8.90;;;;;;;10.36;81.29;99521.78;5005068;28;20222;-79
2021/09/11 03:58:33;;;;;;;9.13;8.27;;;;;;;10.32;81.46;99522.44;5007213;28;20661;-79
2021/09/11 04:04:14;;;;;;;10.43;9.43;;;;;;;10.49;81.60;99532.41;5114443;22;20589;-80
2021/09/11 04:06:48;;;;;;;9.97;8.97;;;;;;;10.45;81.61;99520.47;5066369;28;20456;-80
2021/09/11 04:09:21;;;;;;;9.57;8.73;;;;;;;10.50;81.30;99527.84;5049104;28;20230;-80
2021/09/11 04:11:52;;;;;;;10.27;9.37;;;;;;;10.47;81.63;99529.09;5074613;23;20271;-80
2021/09/11 04:14:26;;;;;;;9.93;9.03;;;;;;;10.47;82.09;99526.44;5042666;23;20237;-80
2021/09/11 04:17:05;;;;;;;10.40;8.57;;;;;;;10.51;81.92;99529.47;5051297;22;20238;-79
2021/09/11 04:19:50;;;;;;;11.07;8.83;;;;;;;10.54;82.08;99545.13;5056139;23;20231;-80
2021/09/11 04:22:48;;;;;;;9.93;8.87;;;;;;;10.53;81.91;99552.34;5073814;28;20229;-79
2021/09/11 04:25:23;;;;;;;9.83;8.63;;;;;;;10.49;82.15;99550.31;5065680;23;20224;-79
2021/09/11 04:27:55;;;;;;;11.13;9.10;;;;;;;10.48;81.81;99549.50;5087257;23;20230;-80
2021/09/11 04:30:31;;;;;;;9.47;8.53;;;;;;;10.45;81.86;99544.56;5069799;28;20226;-79
2021/09/11 04:33:12;;;;;;;9.57;8.63;;;;;;;10.48;82.04;99552.19;5099767;28;20250;-79
2021/09/11 04:35:53;;;;;;;9.30;8.50;;;;;;;10.50;81.85;99541.22;5100986;28;20228;-79
2021/09/11 04:38:25;;;;;;;9.90;8.20;;;;;;;10.56;81.73;99553.75;5099056;28;20285;-80
2021/09/11 04:40:55;;;;;;;8.77;7.97;;;;;;;10.53;81.68;99551.50;5101606;28;20623;-79
2021/09/11 04:43:37;;;;;;;8.77;7.97;;;;;;;10.55;81.50;99549.41;5101749;28;20227;-79
2021/09/11 04:46:12;;;;;;;9.43;8.43;;;;;;;10.60;81.43;99558.44;5103642;28;20228;-80
2021/09/11 04:48:45;;;;;;;9.03;8.23;;;;;;;10.59;81.50;99556.78;5103231;28;20281;-79
2021/09/11 04:51:25;;;;;;;9.50;8.60;;;;;;;10.64;81.25;99566.06;5093665;22;20195;-79
2021/09/11 04:54:10;;;;;;;9.67;8.67;;;;;;;10.74;81.21;99574.38;5059353;28;20260;-80
2021/09/11 04:56:57;;;;;;;9.20;8.33;;;;;;;10.84;80.95;99580.03;5063197;28;20233;-79
2021/09/11 04:59:30;;;;;;;9.70;8.80;;;;;;;10.95;80.90;99590.03;5063664;28;20177;-79
2021/09/11 05:02:09;;;;;;;8.50;7.70;;;;;;;11.05;80.47;99585.00;5083325;23;20236;-80
2021/09/11 05:04:43;;;;;;;8.67;7.80;;;;;;;11.14;80.24;99582.81;5103750;28;20228;-80
2021/09/11 05:07:25;;;;;;;9.00;8.20;;;;;;;11.33;79.65;99587.94;5122551;22;20228;-79
2021/09/11 05:10:17;;;;;;;8.20;7.53;;;;;;;11.45;79.18;99596.03;5103334;28;20232;-79
2021/09/11 05:13:00;;;;;;;8.87;8.07;;;;;;;11.55;79.09;99592.81;5102615;28;20231;-79
2021/09/11 05:15:37;;;;;;;8.63;7.90;;;;;;;11.64;78.80;99584.22;5088597;28;20221;-80
2021/09/11 05:18:29;;;;;;;8.47;7.67;;;;;;;11.80;78.33;99602.41;5097978;22;20229;-79
2021/09/11 05:21:05;;;;;;;8.57;7.70;;;;;;;11.98;78.21;99606.09;5113806;22;20236;-80
2021/09/11 05:23:44;;;;;;;10.80;8.57;;;;;;;12.09;77.76;99600.75;5087261;28;20235;-80
2021/09/11 05:26:20;;;;;;;8.37;7.50;;;;;;;12.28;77.56;99609.53;5088291;28;20296;-79
2021/09/11 05:29:05;;;;;;;8.67;7.87;;;;;;;12.32;77.17;99589.22;5090269;28;20192;-79
2021/09/11 05:31:39;;;;;;;8.17;7.47;;;;;;;12.60;76.51;99600.09;5088981;23;20490;-80
2021/09/11 05:34:18;;;;;;;8.57;7.87;;;;;;;12.73;76.08;99602.59;5049189;28;20217;-79
2021/09/11 05:36:56;;;;;;;11.13;8.03;;;;;;;12.93;75.50;99610.28;5031346;28;20313;-80
2021/09/11 05:39:27;;;;;;;8.53;7.73;;;;;;;13.10;75.18;99619.28;5056676;22;20670;-79
2021/09/11 05:42:08;;;;;;;7.97;7.27;;;;;;;13.29;74.30;99617.28;5092871;23;20224;-80
2021/09/11 05:45:10;;;;;;;8.83;7.70;;;;;;;13.36;73.86;99604.50;5092656;23;20278;-79
2021/09/11 05:47:51;;;;;;;8.90;7.83;;;;;;;13.63;73.12;99619.03;5029215;28;20219;-80
2021/09/11 05:50:30;;;;;;;8.37;7.57;;;;;;;13.81;72.69;99614.53;5044236;28;20242;-79
2021/09/11 05:53:12;;;;;;;7.83;7.07;;;;;;;13.92;71.99;99610.97;5046503;28;20230;-80
2021/09/11 05:55:56;;;;;;;8.63;7.83;;;;;;;14.12;71.99;99614.03;5046674;28;20555;-80
2021/09/11 05:58:31;;;;;;;8.60;7.13;;;;;;;14.27;71.38;99606.22;5046166;28;20286;-80
2021/09/11 06:01:08;;;;;;;7.83;7.20;;;;;;;14.50;71.04;99616.06;5048451;28;20197;-80
2021/09/11 06:03:49;;;;;;;8.13;7.43;;;;;;;14.62;70.19;99613.25;5046138;28;20233;-80
2021/09/11 06:06:30;;;;;;;8.40;7.20;;;;;;;14.74;70.21;99603.22;5045709;28;20260;-80
2021/09/11 06:09:10;;;;;;;7.83;7.00;;;;;;;14.93;69.07;99609.97;5029453;28;20233;-80
2021/09/11 06:11:45;;;;;;;8.30;7.47;;;;;;;15.06;69.05;99601.53;5042233;28;20235;-87
2021/09/11 06:14:22;;;;;;;8.10;7.30;;;;;;;15.20;68.51;99602.78;5038351;28;20230;-93
2021/09/11 06:17:06;;;;;;;7.73;7.03;;;;;;;15.46;67.24;99620.09;5022243;28;20282;-80
2021/09/11 06:19:37;;;;;;;8.50;7.77;;;;;;;15.60;67.60;99618.69;5037503;28;20508;-79
2021/09/11 06:22:07;;;;;;;9.40;8.50;;;;;;;15.73;66.54;99617.47;5034486;28;20287;-85
2021/09/11 06:24:43;;;;;;;9.30;8.50;;;;;;;15.87;66.30;99621.41;5034614;28;20634;-85
2021/09/11 06:27:13;;;;;;;12.70;8.53;;;;;;;15.96;65.10;99609.06;5018246;28;20666;-80
2021/09/11 06:29:45;;;;;;;9.03;7.80;;;;;;;16.16;64.81;99619.28;5035216;28;20233;-79
2021/09/11 06:32:17;;;;;;;8.73;7.87;;;;;;;16.32;64.64;99615.66;5002955;28;20294;-86
2021/09/11 06:34:48;;;;;;;9.37;7.30;;;;;;;16.44;63.09;99607.34;5034992;28;20701;-83
2021/09/11 06:37:25;;;;;;;9.47;7.90;;;;;;;16.57;62.65;99607.72;5018873;28;20236;-87
2021/09/11 06:40:00;;;;;;;8.13;7.17;;;;;;;16.63;61.96;99595.91;5019984;28;20315;-86
2021/09/11 06:42:34;;;;;;;8.07;7.10;;;;;;;16.80;59.97;99603.06;5034577;28;20316;-91
2021/09/11 06:45:05;;;;;;;10.03;7.17;;;;;;;16.94;58.67;99599.63;5018906;28;20347;-94
2021/09/11 06:47:39;;;;;;;7.67;6.97;;;;;;;17.12;59.08;99599.19;5018517;28;20263;-91
2021/09/11 06:50:11;;;;;;;9.83;6.80;;;;;;;17.27;57.92;99593.03;5034614;28;20312;-82
2021/09/11 06:52:45;;;;;;;8.17;6.93;;;;;;;17.39;57.87;99601.75;5034768;28;20421;-88
2021/09/11 06:55:18;;;;;;;9.43;7.03;;;;;;;17.54;57.17;99601.00;5018895;28;20234;-88
2021/09/11 06:57:48;;;;;;;8.37;7.30;;;;;;;17.69;56.97;99603.78;5018384;28;20634;-92
2021/09/11 07:00:22;;;;;;;9.60;7.27;;;;;;;17.86;57.36;99609.00;5034354;28;20291;-87
2021/09/11 07:02:51;;;;;;;8.27;7.40;;;;;;;17.95;57.35;99610.91;5018236;28;20626;-85
2021/09/11 07:05:21;;;;;;;8.00;7.23;;;;;;;18.07;57.62;99607.94;5035226;28;20233;-87
2021/09/11 07:07:50;;;;;;;8.87;7.67;;;;;;;18.20;57.64;99620.97;5017970;28;20239;-90
2021/09/11 07:10:23;;;;;;;10.47;7.73;;;;;;;18.34;57.26;99618.53;5017739;28;20238;-88
2021/09/11 07:12:53;;;;;;;9.20;8.13;;;;;;;18.54;56.90;99625.91;5018217;28;20688;-91
2021/09/11 07:15:28;;;;;;;7.40;6.67;;;;;;;18.58;56.50;99613.41;5018774;28;20633;-87
2021/09/11 07:17:58;;;;;;;9.10;7.13;;;;;;;18.71;56.10;99610.97;5018446;28;20652;-80
2021/09/11 07:20:31;;;;;;;9.33;7.20;;;;;;;18.88;55.12;99613.41;5018557;28;20652;-82
2021/09/11 07:23:03;;;;;;;9.60;7.00;;;;;;;18.98;54.57;99607.13;5033577;28;20309;-85
2021/09/11 07:25:33;;;;;;;7.10;6.40;;;;;;;19.15;54.16;99611.16;5034153;28;20549;-82
2021/09/11 07:28:02;;;;;;;8.13;6.60;;;;;;;19.30;54.21;99608.41;5017630;28;20233;-90
2021/09/11 07:30:35;;;;;;;10.40;6.60;;;;;;;19.37;53.53;99605.38;5034201;28;20633;-81
2021/09/11 07:33:06;;;;;;;7.90;6.40;;;;;;;19.53;53.37;99615.13;5018392;28;20226;-91
2021/09/11 07:35:37;;;;;;;9.77;6.37;;;;;;;19.64;52.12;99611.25;5034009;28;20257;-82
2021/09/11 07:38:06;;;;;;;8.73;6.70;;;;;;;19.85;52.05;99617.41;5016602;28;20224;-83
2021/09/11 07:40:37;;;;;;;7.10;6.27;;;;;;;19.97;51.46;99620.59;5017883;28;20230;-84
2021/09/11 07:43:09;;;;;;;9.67;6.63;;;;;;;20.17;51.91;99627.81;5016932;28;20249;-80
2021/09/11 07:45:40;;;;;;;7.63;6.73;;;;;;;20.30;51.37;99624.50;5017602;28;20574;-85
2021/09/11 07:48:12;;;;;;;9.40;7.30;;;;;;;20.33;51.50;99621.22;5017643;28;20227;-82
2021/09/11 07:50:43;;;;;;;10.70;7.20;;;;;;;20.49;50.59;99627.34;5017320;28;20772;-83
2021/09/11 07:53:14;;;;;;;8.30;6.80;;;;;;;20.48;50.67;99628.47;5034070;28;20222;-91
2021/09/11 07:55:46;;;;;;;6.67;5.97;;;;;;;20.63;50.50;99620.16;5018664;28;20229;-82
2021/09/11 07:58:15;;;;;;;8.10;6.23;;;;;;;20.67;49.16;99617.69;5000620;28;20230;-91
2021/09/11 08:00:47;;;;;;;8.33;6.30;;;;;;;20.79;49.43;99616.19;5034359;28;20563;-88
2021/09/11 08:03:18;;;;;;;8.40;6.03;;;;;;;20.87;49.63;99609.31;5033301;28;20242;-89
2021/09/11 08:05:46;;;;;;;10.23;5.70;;;;;;;20.95;48.93;99634.00;5033414;28;20244;-86
2021/09/11 08:08:13;;;;;;;6.20;5.70;;;;;;;20.97;48.62;99606.50;5032874;28;20249;-90
2021/09/11 08:10:41;;;;;;;7.87;5.50;;;;;;;21.18;48.42;99616.13;5017035;28;20569;-82
2021/09/11 08:13:09;;;;;;;6.43;5.03;;;;;;;21.39;48.78;99622.13;5033787;28;20642;-92
2021/09/11 08:15:38;;;;;;;6.70;6.10;;;;;;;21.46;48.38;99620.66;5033739;28;20235;-82
2021/09/11 08:18:06;;;;;;;7.37;5.83;;;;;;;21.51;48.36;99609.69;5032789;28;20666;-88
2021/09/11 08:20:37;;;;;;;6.00;5.33;;;;;;;21.63;47.79;99613.94;5032011;28;20619;-85
2021/09/11 08:23:09;;;;;;;6.27;5.57;;;;;;;21.70;47.90;99620.63;5031965;28;20317;-87
2021/09/11 08:25:39;;;;;;;7.00;5.60;;;;;;;21.64;47.69;99616.38;5017319;28;20235;-89
2021/09/11 08:28:09;;;;;;;5.57;5.03;;;;;;;21.86;47.73;99632.16;5016957;28;20255;-90
2021/09/11 08:30:39;;;;;;;7.80;5.63;;;;;;;21.87;47.33;99611.97;5017696;28;20223;-87
2021/09/11 08:33:13;;;;;;;6.53;5.13;;;;;;;22.07;47.57;99619.88;5013020;28;20647;-94
2021/09/11 08:35:40;;;;;;;7.63;5.77;;;;;;;22.08;47.24;99621.50;5014408;28;20315;-91
2021/09/11 08:38:11;;;;;;;6.80;6.07;;;;;;;22.12;47.00;99610.81;5012383;28;20243;-86
2021/09/11 08:40:41;;;;;;;6.53;5.80;;;;;;;22.38;46.24;99620.25;5008398;28;20231;-94
2021/09/11 08:43:16;;;;;;;7.93;6.53;;;;;;;22.05;47.42;99602.19;5030102;28;20219;-89
2021/09/11 08:45:49;;;;;;;6.73;6.13;;;;;;;22.09;47.50;99598.59;5016321;28;20232;-88
2021/09/11 08:48:20;;;;;;;8.13;6.37;;;;;;;22.30;47.56;99610.00;5015883;28;20573;-89
2021/09/11 08:50:50;;;;;;;6.83;6.13;;;;;;;22.24;47.33;99600.28;5003904;28;20254;-91
2021/09/11 08:53:20;;;;;;;6.57;5.87;;;;;;;22.48;47.60;99619.28;5005271;28;20255;-95
2021/09/11 08:55:49;;;;;;;6.67;5.97;;;;;;;22.58;47.53;99611.72;5004481;28;20625;-87
2021/09/11 08:58:20;;;;;;;7.00;6.30;;;;;;;22.81;47.58;99616.28;5004703;28;20609;-93
2021/09/11 09:00:58;;;;;;;6.37;5.77;;;;;;;22.81;47.10;99594.44;5036620;28;20232;-94
2021/09/11 09:03:38;;;;;;;7.53;6.73;;;;;;;22.89;47.30;99611.22;5016385;28;20283;-93
2021/09/11 09:06:19;;;;;;;9.63;6.33;;;;;;;22.85;47.71;99615.66;4999826;28;20227;-93
2021/09/11 09:09:17;;;;;;;7.03;6.33;;;;;;;23.02;47.09;99607.69;5001095;28;20257;-85
2021/09/11 09:11:48;;;;;;;7.77;5.73;;;;;;;23.20;46.58;99606.78;5015887;28;20236;-92
2021/09/11 09:14:23;;;;;;;8.83;6.90;;;;;;;23.34;46.03;99604.88;5016146;28;20308;-90
2021/09/11 09:16:52;;;;;;;6.93;6.33;;;;;;;23.40;45.92;99600.13;5001009;28;21023;-93
2021/09/11 09:19:25;;;;;;;8.37;7.00;;;;;;;23.44;45.79;99604.69;5017927;28;20311;-86
2021/09/11 09:22:01;;;;;;;7.87;6.23;;;;;;;23.48;46.10;99597.50;5016952;28;20237;-93
2021/09/11 09:24:35;;;;;;;8.13;7.07;;;;;;;23.50;46.05;99580.81;5018347;28;20233;-92
2021/09/11 09:27:08;;;;;;;7.10;6.40;;;;;;;23.66;46.38;99596.56;5036508;28;20228;-95
2021/09/11 09:29:40;;;;;;;8.17;7.07;;;;;;;23.36;46.48;99591.72;5020363;28;20232;-88
2021/09/11 09:32:10;;;;;;;7.73;7.03;;;;;;;23.32;46.55;99601.66;5020046;28;20229;-84
2021/09/11 09:34:45;;;;;;;8.23;7.33;;;;;;;23.47;46.49;99584.94;5020682;28;20306;-86
2021/09/11 09:37:17;;;;;;;7.50;6.90;;;;;;;23.63;46.37;99579.97;5013561;28;20222;-85
2021/09/11 09:39:51;;;;;;;8.87;7.00;;;;;;;23.70;46.72;99577.66;5034434;28;20558;-90
2021/09/11 09:42:22;;;;;;;7.60;6.70;;;;;;;23.92;46.05;99577.69;5008337;28;20260;-87
2021/09/11 09:44:55;;;;;;;10.20;7.47;;;;;;;23.83;46.52;99579.53;5019037;28;20324;-89
2021/09/11 09:47:26;;;;;;;8.10;7.40;;;;;;;23.93;45.69;99587.50;5035617;28;20226;-86
2021/09/11 09:50:07;;;;;;;7.70;6.80;;;;;;;24.02;45.85;99579.38;5032365;28;20222;-85
2021/09/11 09:52:39;;;;;;;7.70;6.70;;;;;;;24.10;46.34;99575.91;5013372;28;20225;-82
2021/09/11 09:55:12;;;;;;;8.48;7.63;;;;;;;24.03;46.13;99581.78;5034738;28;20269;-85
2021/09/11 09:57:42;;;;;;;7.80;6.97;;;;;;;24.18;45.95;99582.56;5019448;28;20335;-85
2021/09/11 10:00:16;;;;;;;7.20;6.50;;;;;;;24.39;45.47;99570.03;5019597;28;20300;-92
2021/09/11 10:02:45;;;;;;;8.30;7.50;;;;;;;24.42;46.32;99567.47;5019810;28;20229;-83
2021/09/11 10:05:22;;;;;;;9.00;8.10;;;;;;;24.39;46.01;99561.81;5034652;28;20230;-83
2021/09/11 10:07:59;;;;;;;8.07;7.28;;;;;;;24.59;46.66;99572.22;5019371;28;20257;-89
2021/09/11 10:10:40;;;;;;;8.40;7.70;;;;;;;24.67;46.06;99563.28;5034688;28;20225;-87
2021/09/11 10:13:18;;;;;;;8.15;7.28;;;;;;;24.81;45.81;99563.19;5033614;28;20233;-81
2021/09/11 10:16:00;;;;;;;8.07;7.30;;;;;;;24.84;45.85;99554.31;5018829;28;20225;-82
2021/09/11 10:18:32;;;;;;;8.07;7.38;;;;;;;24.92;46.01;99559.06;5018740;28;20317;-82
2021/09/11 10:21:15;;;;;;;8.60;7.72;;;;;;;24.71;46.22;99560.72;5035846;28;20295;-82
2021/09/11 10:24:15;;;;;;;7.57;6.80;;;;;;;24.86;46.23;99557.56;5034749;28;20226;-82
2021/09/11 10:27:09;;;;;;;8.85;7.50;;;;;;;25.09;45.84;99558.34;5034206;28;20242;-82
2021/09/11 10:29:45;;;;;;;8.00;7.20;;;;;;;25.41;45.14;99547.78;5019669;28;20254;-85
2021/09/11 10:32:44;;;;;;;8.90;7.40;;;;;;;25.58;44.17;99552.53;5018502;28;20313;-85
2021/09/11 10:35:22;;;;;;;7.40;6.85;;;;;;;25.76;43.92;99547.84;5034908;28;20230;-84
2021/09/11 10:37:58;;;;;;;8.25;7.43;;;;;;;25.78;44.06;99549.16;5034254;28;20264;-81
2021/09/11 10:40:27;;;;;;;7.50;6.80;;;;;;;25.93;44.36;99549.81;5018194;28;20686;-86
2021/09/11 10:43:05;;;;;;;8.05;7.30;;;;;;;26.11;43.37;99549.50;5034963;28;20534;-88
2021/09/11 10:45:45;;;;;;;8.18;7.45;;;;;;;26.16;43.46;99537.53;5034736;28;20224;-85
2021/09/11 10:48:43;;;;;;;9.60;7.80;;;;;;;26.36;43.47;99542.41;5034437;28;20240;-88
2021/09/11 10:51:42;;;;;;;8.07;7.22;;;;;;;26.57;43.14;99539.75;5035821;28;20314;-83
2021/09/11 10:54:13;;;;;;;7.57;6.80;;;;;;;26.65;42.85;99539.72;5018402;28;20306;-85
2021/09/11 10:56:57;;;;;;;7.22;6.60;;;;;;;26.89;42.59;99528.19;5018964;28;20257;-82
2021/09/11 10:59:32;;;;;;;7.90;7.10;;;;;;;26.80;42.73;99527.38;5019603;28;20311;-83
2021/09/11 11:02:06;;;;;;;7.75;7.10;;;;;;;27.00;42.78;99536.88;5018786;28;20601;-86
2021/09/11 11:04:55;;;;;;;8.55;7.03;;;;;;;27.24;41.97;99522.53;5018412;28;20230;-83
2021/09/11 11:07:32;;;;;;;7.60;7.00;;;;;;;27.39;41.33;99517.25;5033960;28;20240;-89
2021/09/11 11:10:11;;;;;;;7.55;6.85;;;;;;;27.58;41.39;99514.06;5018657;28;20233;-85
2021/09/11 11:12:44;;;;;;;7.72;7.10;;;;;;;27.59;40.80;99493.69;5034024;28;20710;-84
2021/09/11 11:15:22;;;;;;;7.95;6.93;;;;;;;27.82;40.70;99494.94;5018794;28;20286;-86
2021/09/11 11:17:54;;;;;;;7.75;7.05;;;;;;;27.49;41.17;99494.06;5035114;28;20232;-89
2021/09/11 11:20:28;;;;;;;7.30;6.60;;;;;;;27.96;40.53;99502.94;5033940;28;20233;-85
2021/09/11 11:22:59;;;;;;;8.82;7.95;;;;;;;28.14;40.45;99492.56;5017782;28;20234;-86
2021/09/11 11:25:37;;;;;;;7.82;7.10;;;;;;;28.15;40.79;99480.44;5018289;28;20299;-82
2021/09/11 11:28:14;;;;;;;7.50;6.82;;;;;;;28.05;41.46;99492.63;5001822;28;20225;-84
2021/09/11 11:30:47;;;;;;;8.07;7.38;;;;;;;27.77;41.46;99475.88;5018864;28;20253;-88
2021/09/11 11:33:19;;;;;;;7.75;7.03;;;;;;;27.82;41.03;99478.44;5030970;28;20308;-82
2021/09/11 11:35:48;;;;;;;8.02;7.15;;;;;;;27.82;40.71;99472.13;5017969;28;20323;-86
2021/09/11 11:38:21;;;;;;;7.72;7.13;;;;;;;28.15;40.28;99474.91;5033176;28;20636;-81
2021/09/11 11:40:51;;;;;;;7.82;7.22;;;;;;;27.83;41.03;99463.53;5033370;28;20314;-83
2021/09/11 11:43:19;;;;;;;8.35;7.55;;;;;;;27.95;39.94;99471.81;4997909;28;20298;-81
2021/09/11 11:45:47;;;;;;;7.75;6.75;;;;;;;28.00;39.82;99460.59;5016255;28;20265;-84
2021/09/11 11:48:19;;;;;;;7.70;7.00;;;;;;;28.02;40.26;99469.34;5017050;28;20305;-85
2021/09/11 11:50:49;;;;;;;7.53;6.95;;;;;;;28.35;39.29;99452.03;4996799;28;20547;-82
2021/09/11 11:53:21;;;;;;;8.23;7.43;;;;;;;28.00;39.40;99457.84;5016776;28;20229;-87
2021/09/11 11:55:53;;;;;;;8.13;7.25;;;;;;;28.00;40.00;99459.78;5017353;28;20230;-85
2021/09/11 11:58:31;;;;;;;8.10;7.32;;;;;;;27.58;40.28;99457.09;5000377;28;20387;-82
2021/09/11 12:01:02;;;;;;;7.40;6.80;;;;;;;27.85;39.89;99443.94;5033117;28;20217;-84
2021/09/11 12:03:45;;;;;;;8.10;6.97;;;;;;;28.07;39.33;99457.31;5017065;28;20219;-85
2021/09/11 12:06:15;;;;;;;7.95;7.25;;;;;;;28.09;39.41;99454.22;5012837;28;20313;-82
2021/09/11 12:08:50;;;;;;;7.15;6.57;;;;;;;28.50;38.64;99442.28;5013874;28;20249;-86
2021/09/11 12:11:27;;;;;;;7.78;7.03;;;;;;;28.82;38.15;99455.22;5017265;28;20241;-85
2021/09/11 12:14:00;;;;;;;7.60;6.90;;;;;;;28.76;37.94;99438.09;5033100;28;20229;-81
2021/09/11 12:16:34;;;;;;;7.63;6.82;;;;;;;29.12;37.66;99437.25;5033363;28;20284;-81